Time;durP1;ratioP1;P1;durP2;ratioP2;P2;SDS_P1;SDS_P2;PMS_P1;PMS_P2;Temp;Humidity;BMP_temperature;BMP_pressure;BME280_temperature;BME280_humidity;BME280_pressure;Samples;Min_cycle;Max_cycle;Signal;HPM_P1;HPM_P2
2022/03/29 00:02:11;;;;;;;;;;;19.10;40.60;;;;;;5084471;28;42981;-73
2022/03/29 00:04:36;;;;;;;;;;;19.10;40.50;;;;;;5085228;28;42933;-72
2022/03/29 00:07:02;;;;;;;;;;;19.10;40.00;;;;;;5084908;28;43495;-72
2022/03/29 00:09:27;;;;;;;;;;;19.10;40.00;;;;;;5085537;28;42874;-72
2022/03/29 00:11:53;;;;;;;;;;;19.20;40.50;;;;;;5084659;28;42891;-72
2022/03/29 00:14:18;;;;;;;;;;;19.20;40.00;;;;;;5085110;28;42875;-73
2022/03/29 00:16:44;;;;;;;;;;;19.20;40.00;;;;;;5085408;28;42909;-72
2022/03/29 00:19:09;;;;;;;;;;;19.30;40.10;;;;;;5085393;28;42988;-72
2022/03/29 00:21:35;;;;;;;;;;;19.10;40.60;;;;;;5085022;28;43990;-72
2022/03/29 00:24:01;;;;;;;;;;;19.10;40.10;;;;;;5084930;28;42895;-72
2022/03/29 00:26:26;;;;;;;;;;;19.20;40.00;;;;;;5084513;28;43996;-72
2022/03/29 00:28:52;;;;;;;;;;;19.10;40.00;;;;;;5084750;28;42934;-73
2022/03/29 00:31:19;;;;;;;;;;;19.10;40.00;;;;;;5085193;28;42881;-72
2022/03/29 00:33:48;;;;;;;;;;;19.20;40.00;;;;;;5085314;28;42843;-72
2022/03/29 00:36:14;;;;;;;;;;;19.10;40.00;;;;;;5085284;28;43950;-72
2022/03/29 00:38:39;;;;;;;;;;;19.10;39.90;;;;;;5086298;28;42905;-72
2022/03/29 00:41:05;;;;;;;;;;;19.20;40.50;;;;;;5088386;28;43737;-72
2022/03/29 00:43:30;;;;;;;;;;;19.20;39.90;;;;;;5088345;28;43242;-72
2022/03/29 00:45:56;;;;;;;;;;;19.20;39.90;;;;;;5088202;28;43852;-73
2022/03/29 00:48:21;;;;;;;;;;;19.20;40.00;;;;;;5088416;28;43004;-72
2022/03/29 00:50:47;;;;;;;;;;;19.20;40.00;;;;;;5088221;28;43076;-72
2022/03/29 00:53:13;;;;;;;;;;;19.10;40.00;;;;;;5088096;28;42943;-73
2022/03/29 00:55:39;;;;;;;;;;;19.00;40.00;;;;;;5088367;28;44168;-72
2022/03/29 00:58:07;;;;;;;;;;;19.20;40.10;;;;;;5093272;28;43112;-73
2022/03/29 01:00:36;;;;;;;;;;;19.10;40.00;;;;;;5093499;28;42833;-73
2022/03/29 01:03:03;;;;;;;;;;;19.10;40.30;;;;;;5086149;28;42882;-73
2022/03/29 01:05:29;;;;;;;;;;;20.70;40.90;;;;;;5088051;28;43683;-73
2022/03/29 01:07:55;;;;;;;;;;;19.20;39.90;;;;;;5088469;28;42953;-73
2022/03/29 01:10:21;;;;;;;;;;;19.10;39.80;;;;;;5088010;28;42953;-73
2022/03/29 01:12:46;;;;;;;;;;;19.20;39.90;;;;;;5088080;28;42953;-72
2022/03/29 01:15:12;;;;;;;;;;;19.20;40.50;;;;;;5088360;28;43428;-72
2022/03/29 01:17:41;;;;;;;;;;;19.20;39.80;;;;;;5086096;28;43244;-72
2022/03/29 01:20:07;;;;;;;;;;;19.20;40.30;;;;;;5066576;28;43648;-72
2022/03/29 01:22:33;;;;;;;;;;;19.10;39.80;;;;;;5068162;28;42942;-73
2022/03/29 01:24:58;;;;;;;;;;;19.00;39.70;;;;;;5067763;28;42830;-73
2022/03/29 01:27:24;;;;;;;;;;;19.20;40.10;;;;;;5067721;28;43030;-72
2022/03/29 01:29:52;;;;;;;;;;;19.10;39.80;;;;;;5067906;28;42817;-72
2022/03/29 01:32:18;;;;;;;;;;;19.10;40.30;;;;;;5067184;28;43029;-72
2022/03/29 01:34:43;;;;;;;;;;;19.10;39.90;;;;;;5067424;28;42976;-72
2022/03/29 01:37:09;;;;;;;;;;;19.20;40.60;;;;;;5066669;28;43030;-72
2022/03/29 01:39:36;;;;;;;;;;;19.10;40.20;;;;;;5066096;28;43087;-72
2022/03/29 01:42:03;;;;;;;;;;;19.20;39.80;;;;;;5066907;28;42915;-72
2022/03/29 01:44:28;;;;;;;;;;;19.20;39.80;;;;;;5066293;28;43443;-73
2022/03/29 01:46:54;;;;;;;;;;;19.20;39.80;;;;;;5067266;28;42937;-72
2022/03/29 01:49:19;;;;;;;;;;;19.10;39.90;;;;;;5066640;28;43884;-72
2022/03/29 01:51:45;;;;;;;;;;;19.10;39.90;;;;;;5067301;28;42846;-72
2022/03/29 01:54:10;;;;;;;;;;;19.10;40.50;;;;;;5063275;28;44124;-72
2022/03/29 01:56:37;;;;;;;;;;;19.00;39.80;;;;;;5066045;28;42985;-72
2022/03/29 01:59:06;;;;;;;;;;;19.20;39.90;;;;;;5066439;28;42944;-73
2022/03/29 02:01:38;;;;;;;;;;;19.10;40.00;;;;;;5066048;28;42773;-73
2022/03/29 02:04:04;;;;;;;;;;;19.10;39.80;;;;;;5066480;28;44773;-72
2022/03/29 02:06:29;;;;;;;;;;;19.10;39.80;;;;;;5065782;28;43009;-73
2022/03/29 02:08:56;;;;;;;;;;;19.20;39.90;;;;;;5066701;28;43279;-72
2022/03/29 02:11:23;;;;;;;;;;;19.50;40.60;;;;;;5065561;28;43033;-72
2022/03/29 02:13:48;;;;;;;;;;;19.00;39.70;;;;;;5065972;28;43541;-73
2022/03/29 02:16:14;;;;;;;;;;;19.10;39.90;;;;;;5065072;28;42936;-72
2022/03/29 02:18:40;;;;;;;;;;;19.10;40.50;;;;;;5065247;28;43642;-72
2022/03/29 02:21:05;;;;;;;;;;;19.10;39.80;;;;;;5066796;28;42934;-72
2022/03/29 02:23:31;;;;;;;;;;;19.30;39.70;;;;;;5065885;28;42942;-72
2022/03/29 02:25:56;;;;;;;;;;;19.20;39.60;;;;;;5066097;28;42933;-72
2022/03/29 02:28:22;;;;;;;;;;;19.10;40.40;;;;;;5064441;28;42914;-72
2022/03/29 02:30:48;;;;;;;;;;;19.20;40.40;;;;;;5064179;28;43204;-73
2022/03/29 02:33:15;;;;;;;;;;;19.10;39.60;;;;;;5064255;28;45577;-72
2022/03/29 02:35:41;;;;;;;;;;;19.10;39.70;;;;;;5065791;28;42994;-71
2022/03/29 02:38:07;;;;;;;;;;;19.10;39.80;;;;;;5065496;28;43435;-73
2022/03/29 02:40:33;;;;;;;;;;;19.00;39.80;;;;;;5065504;28;43020;-73
2022/03/29 02:42:58;;;;;;;;;;;19.10;40.50;;;;;;5065674;28;43524;-73
2022/03/29 02:45:25;;;;;;;;;;;19.10;40.00;;;;;;5065134;28;42988;-72
2022/03/29 02:47:52;;;;;;;;;;;19.10;40.00;;;;;;5064956;28;43490;-72
2022/03/29 02:50:18;;;;;;;;;;;19.10;40.20;;;;;;5065322;28;42886;-73
2022/03/29 02:52:47;;;;;;;;;;;19.10;39.70;;;;;;5066142;28;42847;-72
2022/03/29 02:55:13;;;;;;;;;;;19.10;39.70;;;;;;5064985;28;42910;-72
2022/03/29 02:57:39;;;;;;;;;;;19.20;40.00;;;;;;5065538;28;42958;-72
2022/03/29 03:00:05;;;;;;;;;;;19.20;39.90;;;;;;5065498;28;42827;-73
2022/03/29 03:02:32;;;;;;;;;;;19.10;39.80;;;;;;5064463;28;43609;-72
2022/03/29 03:04:59;;;;;;;;;;;17.10;38.80;;;;;;5065869;28;42936;-72
2022/03/29 03:07:24;;;;;;;;;;;19.10;40.40;;;;;;5065373;28;43555;-71
2022/03/29 03:09:50;;;;;;;;;;;19.20;40.50;;;;;;5064832;28;42828;-72
2022/03/29 03:12:15;;;;;;;;;;;19.10;39.90;;;;;;5065029;28;42833;-73
2022/03/29 03:14:41;;;;;;;;;;;19.10;40.40;;;;;;5064159;28;42898;-72
2022/03/29 03:17:06;;;;;;;;;;;19.10;39.90;;;;;;5064904;28;43430;-72
2022/03/29 03:19:32;;;;;;;;;;;19.10;40.40;;;;;;5065088;28;42945;-73
2022/03/29 03:21:58;;;;;;;;;;;19.00;39.80;;;;;;5064995;28;42978;-72
2022/03/29 03:24:23;;;;;;;;;;;19.10;39.80;;;;;;5065361;28;42938;-72
2022/03/29 03:26:49;;;;;;;;;;;19.80;40.00;;;;;;5064029;28;43611;-72
2022/03/29 03:29:14;;;;;;;;;;;19.10;39.70;;;;;;5063390;28;42990;-72
2022/03/29 03:31:39;;;;;;;;;;;19.10;39.70;;;;;;5064433;28;42832;-72
2022/03/29 03:34:05;;;;;;;;;;;19.10;40.30;;;;;;5064544;28;43107;-72
2022/03/29 03:36:30;;;;;;;;;;;19.10;40.40;;;;;;5065037;28;43356;-72
2022/03/29 03:38:56;;;;;;;;;;;19.10;40.30;;;;;;5064148;28;43105;-72
2022/03/29 03:41:21;;;;;;;;;;;19.10;40.30;;;;;;5064856;28;43475;-72
2022/03/29 03:43:47;;;;;;;;;;;19.10;39.70;;;;;;5064711;28;42937;-72
2022/03/29 03:46:13;;;;;;;;;;;19.10;40.40;;;;;;5064244;28;42898;-72
2022/03/29 03:48:38;;;;;;;;;;;19.00;39.80;;;;;;5066628;28;43096;-73
2022/03/29 03:51:04;;;;;;;;;;;19.10;40.40;;;;;;5071120;28;42902;-72
2022/03/29 03:53:30;;;;;;;;;;;19.10;39.80;;;;;;5066940;28;43100;-71
2022/03/29 03:55:56;;;;;;;;;;;18.90;39.70;;;;;;5064291;28;42890;-72
2022/03/29 03:58:21;;;;;;;;;;;19.00;39.80;;;;;;5064655;28;42918;-71
2022/03/29 04:00:47;;;;;;;;;;;19.10;39.80;;;;;;5064158;28;43429;-72
2022/03/29 04:03:12;;;;;;;;;;;19.10;40.30;;;;;;5064244;28;42879;-72
2022/03/29 04:05:38;;;;;;;;;;;19.10;40.40;;;;;;5064462;28;42847;-72
2022/03/29 04:08:04;;;;;;;;;;;19.10;40.20;;;;;;5064618;28;42930;-72
2022/03/29 04:10:29;;;;;;;;;;;19.30;40.90;;;;;;5063306;28;43346;-72
2022/03/29 04:12:55;;;;;;;;;;;19.10;40.30;;;;;;5062819;28;42922;-73
2022/03/29 04:15:21;;;;;;;;;;;19.10;40.40;;;;;;5062267;28;43077;-71
2022/03/29 04:17:46;;;;;;;;;;;19.10;40.90;;;;;;5063578;28;43688;-72
2022/03/29 04:20:12;;;;;;;;;;;19.10;40.90;;;;;;5064338;28;43032;-71
2022/03/29 04:22:38;;;;;;;;;;;19.00;40.50;;;;;;5064469;28;42936;-72
2022/03/29 04:25:03;;;;;;;;;;;19.10;41.10;;;;;;5063922;28;42964;-71
2022/03/29 04:27:29;;;;;;;;;;;19.10;40.60;;;;;;5064539;28;42885;-72
2022/03/29 04:29:54;;;;;;;;;;;19.20;40.50;;;;;;5064069;28;43604;-72
2022/03/29 04:32:20;;;;;;;;;;;19.10;41.00;;;;;;5064604;28;42940;-72
2022/03/29 04:34:47;;;;;;;;;;;19.00;39.60;;;;;;5072383;28;42991;-72
2022/03/29 04:37:13;;;;;;;;;;;19.10;40.00;;;;;;5083318;27;43052;-72
2022/03/29 04:39:39;;;;;;;;;;;19.10;40.50;;;;;;5082205;28;43042;-73
2022/03/29 04:42:05;;;;;;;;;;;19.10;39.80;;;;;;5083758;27;42707;-72
2022/03/29 04:44:31;;;;;;;;;;;19.00;39.70;;;;;;5073535;28;43867;-72
2022/03/29 04:46:57;;;;;;;;;;;19.50;41.00;;;;;;5063283;28;43094;-72
2022/03/29 04:49:22;;;;;;;;;;;19.00;40.90;;;;;;5078404;28;42828;-73
2022/03/29 04:51:48;;;;;;;;;;;19.00;40.80;;;;;;5083942;28;42985;-73
2022/03/29 04:54:13;;;;;;;;;;;19.10;41.60;;;;;;5081048;28;43490;-73
2022/03/29 04:56:39;;;;;;;;;;;19.00;40.80;;;;;;5082435;27;43053;-73
2022/03/29 04:59:05;;;;;;;;;;;19.10;40.50;;;;;;5079890;28;43596;-74
2022/03/29 05:01:30;;;;;;;;;;;19.10;41.50;;;;;;5081769;28;42898;-74
2022/03/29 05:03:56;;;;;;;;;;;19.00;42.00;;;;;;5081917;28;43378;-74
2022/03/29 05:06:21;;;;;;;;;;;19.00;41.30;;;;;;5082317;28;42955;-74
2022/03/29 05:08:47;;;;;;;;;;;19.00;42.00;;;;;;5082320;28;44386;-74
2022/03/29 05:11:12;;;;;;;;;;;19.10;41.30;;;;;;5082788;28;43162;-74
2022/03/29 05:13:38;;;;;;;;;;;19.10;42.00;;;;;;5082650;27;44057;-73
2022/03/29 05:16:04;;;;;;;;;;;19.10;41.90;;;;;;5082433;28;43081;-72
2022/03/29 05:18:29;;;;;;;;;;;19.00;41.30;;;;;;5083287;28;42996;-74
2022/03/29 05:20:55;;;;;;;;;;;19.10;41.40;;;;;;5083002;28;44682;-74
2022/03/29 05:23:22;;;;;;;;;;;19.00;42.10;;;;;;5080053;28;43845;-75
2022/03/29 05:25:48;;;;;;;;;;;19.00;41.40;;;;;;5085787;27;43224;-75
2022/03/29 05:28:13;;;;;;;;;;;19.00;42.10;;;;;;5086720;28;43075;-75
2022/03/29 05:30:39;;;;;;;;;;;19.00;41.50;;;;;;5083744;28;43067;-75
2022/03/29 05:33:05;;;;;;;;;;;19.10;41.50;;;;;;5089074;27;43933;-75
2022/03/29 05:35:31;;;;;;;;;;;19.00;41.30;;;;;;5097840;27;42895;-74
2022/03/29 05:37:58;;;;;;;;;;;19.00;41.30;;;;;;5087296;27;43814;-75
2022/03/29 05:40:24;;;;;;;;;;;19.10;41.60;;;;;;5073368;28;43061;-74
2022/03/29 05:42:50;;;;;;;;;;;19.00;41.40;;;;;;5063767;28;44600;-74
2022/03/29 05:45:16;;;;;;;;;;;19.00;42.00;;;;;;5066783;28;43049;-74
2022/03/29 05:50:26;;;;;;;;;;;19.00;41.80;;;;;;5062936;28;43017;-76
2022/03/29 05:52:51;;;;;;;;;;;19.10;41.40;;;;;;5066298;28;43980;-74
2022/03/29 05:55:17;;;;;;;;;;;19.00;41.30;;;;;;5066537;28;42933;-76
2022/03/29 05:57:43;;;;;;;;;;;19.00;42.00;;;;;;5066257;28;42933;-74
2022/03/29 06:00:10;;;;;;;;;;;19.00;41.70;;;;;;5066529;28;43548;-74
2022/03/29 06:02:36;;;;;;;;;;;19.00;41.50;;;;;;5063731;28;43292;-77
2022/03/29 06:05:02;;;;;;;;;;;18.90;41.50;;;;;;5058904;28;43261;-77
2022/03/29 06:07:28;;;;;;;;;;;19.10;41.60;;;;;;5061808;28;43012;-76
2022/03/29 06:09:53;;;;;;;;;;;19.00;41.70;;;;;;5061192;28;42971;-75
2022/03/29 06:12:20;;;;;;;;;;;19.20;41.60;;;;;;5063376;28;43496;-75
2022/03/29 06:14:45;;;;;;;;;;;19.00;42.00;;;;;;5063619;28;43025;-74
2022/03/29 06:17:11;;;;;;;;;;;19.10;41.70;;;;;;5065315;28;42993;-75
2022/03/29 06:19:37;;;;;;;;;;;19.00;42.20;;;;;;5046954;28;43118;-74
2022/03/29 06:22:04;;;;;;;;;;;19.10;41.70;;;;;;5062091;28;43168;-75
2022/03/29 06:24:31;;;;;;;;;;;19.00;41.60;;;;;;5064598;28;43070;-74
2022/03/29 06:26:57;;;;;;;;;;;19.10;41.60;;;;;;5062916;28;43769;-74
2022/03/29 06:29:23;;;;;;;;;;;19.00;42.10;;;;;;5064918;28;43043;-75
2022/03/29 06:31:48;;;;;;;;;;;19.00;41.60;;;;;;5061475;28;45097;-74
2022/03/29 06:34:14;;;;;;;;;;;19.00;42.20;;;;;;5062562;28;43108;-75
2022/03/29 06:36:41;;;;;;;;;;;18.70;43.50;;;;;;5062948;28;43576;-74
2022/03/29 06:39:08;;;;;;;;;;;18.10;43.80;;;;;;5066853;28;43265;-74
2022/03/29 06:41:34;;;;;;;;;;;17.90;44.50;;;;;;5079150;28;43871;-74
2022/03/29 06:44:00;;;;;;;;;;;17.80;45.30;;;;;;5076792;28;43027;-73
2022/03/29 06:46:25;;;;;;;;;;;17.90;45.60;;;;;;5080661;28;43638;-75
2022/03/29 06:48:51;;;;;;;;;;;17.90;44.50;;;;;;5079207;28;42986;-73
2022/03/29 06:51:18;;;;;;;;;;;18.10;44.50;;;;;;5075656;27;42948;-75
2022/03/29 06:53:44;;;;;;;;;;;18.00;44.30;;;;;;5074017;27;43031;-76
2022/03/29 06:56:09;;;;;;;;;;;17.90;44.10;;;;;;5076922;27;43300;-77
2022/03/29 06:58:35;;;;;;;;;;;17.90;45.10;;;;;;5079232;28;43561;-76
2022/03/29 07:01:01;;;;;;;;;;;17.70;45.20;;;;;;5080838;28;43809;-73
2022/03/29 07:03:27;;;;;;;;;;;17.70;45.30;;;;;;5081566;28;43043;-77
2022/03/29 07:05:53;;;;;;;;;;;17.70;45.00;;;;;;5082993;28;43271;-74
2022/03/29 07:08:20;;;;;;;;;;;17.60;45.10;;;;;;5083602;28;42988;-75
2022/03/29 07:13:31;;;;;;;;;;;17.50;45.10;;;;;;5078406;28;42989;-73
2022/03/29 07:15:56;;;;;;;;;;;17.40;45.30;;;;;;5074353;28;43698;-73
2022/03/29 07:18:22;;;;;;;;;;;17.30;46.00;;;;;;5081674;27;43169;-74
2022/03/29 07:20:47;;;;;;;;;;;17.30;46.10;;;;;;5080083;28;43106;-74
2022/03/29 07:23:13;;;;;;;;;;;17.30;46.10;;;;;;5068850;28;43859;-73
2022/03/29 07:25:38;;;;;;;;;;;17.40;45.50;;;;;;5073228;28;43392;-74
2022/03/29 07:28:04;;;;;;;;;;;17.20;45.80;;;;;;5080995;28;42920;-74
2022/03/29 07:30:31;;;;;;;;;;;17.30;46.30;;;;;;5080984;28;42885;-74
2022/03/29 07:32:57;;;;;;;;;;;17.20;45.70;;;;;;5077204;28;44027;-74
2022/03/29 07:35:24;;;;;;;;;;;17.30;46.60;;;;;;5081048;28;42936;-75
2022/03/29 07:37:50;;;;;;;;;;;17.40;46.80;;;;;;5083790;28;42989;-77
2022/03/29 07:40:17;;;;;;;;;;;17.30;46.00;;;;;;5081437;28;43242;-76
2022/03/29 07:42:43;;;;;;;;;;;17.40;46.20;;;;;;5082987;28;42999;-78
2022/03/29 07:45:12;;;;;;;;;;;17.30;46.90;;;;;;5076201;28;43481;-78
2022/03/29 07:47:38;;;;;;;;;;;17.30;46.50;;;;;;5076925;27;43127;-75
2022/03/29 07:50:06;;;;;;;;;;;17.10;46.10;;;;;;5081184;28;42968;-76
2022/03/29 07:52:33;;;;;;;;;;;17.20;46.70;;;;;;5080388;28;43146;-75
2022/03/29 07:54:58;;;;;;;;;;;17.30;46.80;;;;;;5079184;28;43703;-76
2022/03/29 07:57:25;;;;;;;;;;;17.10;47.00;;;;;;5080988;27;43078;-76
2022/03/29 07:59:50;;;;;;;;;;;17.20;46.80;;;;;;5081691;28;44634;-78
2022/03/29 08:02:16;;;;;;;;;;;17.00;47.20;;;;;;5084178;28;43713;-78
2022/03/29 08:04:41;;;;;;;;;;;17.00;47.40;;;;;;5084215;28;43108;-79
2022/03/29 08:07:08;;;;;;;;;;;17.00;47.20;;;;;;5078577;28;43015;-76
2022/03/29 08:09:34;;;;;;;;;;;17.10;46.90;;;;;;5081017;28;43670;-75
2022/03/29 08:12:00;;;;;;;;;;;17.10;47.00;;;;;;5084549;27;42979;-75
2022/03/29 08:14:25;;;;;;;;;;;17.00;47.30;;;;;;5084330;27;43584;-78
2022/03/29 08:16:55;;;;;;;;;;;17.00;47.50;;;;;;5084150;28;42978;-75
2022/03/29 08:19:21;;;;;;;;;;;17.00;47.30;;;;;;5083410;27;43083;-78
2022/03/29 08:21:49;;;;;;;;;;;16.90;47.20;;;;;;5083380;28;42983;-74
2022/03/29 08:24:25;;;;;;;;;;;17.00;47.30;;;;;;5083301;28;43419;-77
2022/03/29 08:26:52;;;;;;;;;;;16.50;46.90;;;;;;5082933;27;43031;-76
2022/03/29 08:29:18;;;;;;;;;;;17.10;46.40;;;;;;5081525;28;43368;-77
2022/03/29 08:31:45;;;;;;;;;;;17.10;45.90;;;;;;5081919;27;43074;-81
2022/03/29 08:34:11;;;;;;;;;;;17.00;46.20;;;;;;5084268;28;43536;-80
2022/03/29 08:36:38;;;;;;;;;;;17.00;46.30;;;;;;5083055;28;42981;-77
2022/03/29 08:39:04;;;;;;;;;;;17.10;47.10;;;;;;5079972;28;43845;-81
2022/03/29 08:41:34;;;;;;;;;;;17.10;46.40;;;;;;5081987;28;43008;-78
2022/03/29 08:44:00;;;;;;;;;;;17.00;47.00;;;;;;5083623;28;43045;-79
2022/03/29 08:46:30;;;;;;;;;;;17.20;46.30;;;;;;5083737;28;42854;-79
2022/03/29 08:48:56;;;;;;;;;;;17.20;46.60;;;;;;5082477;28;43734;-74
2022/03/29 08:51:22;;;;;;;;;;;17.20;46.70;;;;;;5082755;28;42876;-73
2022/03/29 08:53:49;;;;;;;;;;;17.20;46.50;;;;;;5083671;28;44186;-74
2022/03/29 08:56:14;;;;;;;;;;;19.90;48.00;;;;;;5083529;28;43085;-84
2022/03/29 08:58:40;;;;;;;;;;;17.30;46.80;;;;;;5082549;27;43607;-79
2022/03/29 09:01:05;;;;;;;;;;;17.40;45.90;;;;;;5078410;27;43413;-81
2022/03/29 09:03:31;;;;;;;;;;;17.30;45.70;;;;;;5083695;28;43632;-83
2022/03/29 09:06:07;;;;;;;;;;;17.30;46.20;;;;;;5080551;28;43074;-86
2022/03/29 09:08:45;;;;;;;;;;;17.10;46.10;;;;;;5075608;28;44252;-82
2022/03/29 09:11:12;;;;;;;;;;;17.20;46.10;;;;;;5080048;28;43266;-83
2022/03/29 09:13:39;;;;;;;;;;;17.10;46.40;;;;;;5078904;28;44673;-82
2022/03/29 09:16:07;;;;;;;;;;;17.10;46.40;;;;;;5076178;28;42871;-83
2022/03/29 09:18:32;;;;;;;;;;;17.20;46.50;;;;;;5072844;28;42984;-79
2022/03/29 09:21:12;;;;;;;;;;;17.10;46.50;;;;;;5079624;28;43077;-82
2022/03/29 09:23:38;;;;;;;;;;;17.30;46.60;;;;;;5083661;28;44003;-89
2022/03/29 09:26:04;;;;;;;;;;;17.30;46.70;;;;;;5087254;28;43215;-88
2022/03/29 09:28:34;;;;;;;;;;;17.40;46.50;;;;;;5104501;28;43100;-85
2022/03/29 09:30:59;;;;;;;;;;;17.40;46.40;;;;;;5094445;28;42979;-87
2022/03/29 09:33:32;;;;;;;;;;;17.30;46.70;;;;;;5087475;28;43172;-88
2022/03/29 09:35:59;;;;;;;;;;;17.20;46.40;;;;;;5073160;28;43027;-90
2022/03/29 09:38:27;;;;;;;;;;;17.30;46.50;;;;;;5080386;28;44441;-89
2022/03/29 09:40:53;;;;;;;;;;;17.30;46.40;;;;;;5078531;28;43090;-90
2022/03/29 09:43:20;;;;;;;;;;;17.30;46.40;;;;;;5081405;28;42933;-90
2022/03/29 09:45:47;;;;;;;;;;;17.60;47.10;;;;;;5086173;27;43191;-88
2022/03/29 09:48:21;;;;;;;;;;;17.30;46.40;;;;;;5074681;27;44020;-89
2022/03/29 09:50:48;;;;;;;;;;;17.60;46.00;;;;;;5075521;28;43228;-82
2022/03/29 09:53:32;;;;;;;;;;;17.60;46.00;;;;;;5080992;28;42867;-76
2022/03/29 09:55:59;;;;;;;;;;;17.70;46.00;;;;;;5077007;28;42972;-76
2022/03/29 09:58:24;;;;;;;;;;;17.70;46.00;;;;;;5074652;28;44924;-75
2022/03/29 10:00:50;;;;;;;;;;;17.70;46.00;;;;;;5084178;28;43042;-75
2022/03/29 10:03:17;;;;;;;;;;;18.50;47.30;;;;;;5080199;28;43672;-80
2022/03/29 10:05:43;;;;;;;;;;;17.90;46.20;;;;;;5079011;27;43051;-79
2022/03/29 10:10:53;;;;;;;;;;;17.60;45.80;;;;;;5082522;28;42987;-79
2022/03/29 10:13:23;;;;;;;;;;;17.70;45.60;;;;;;5083277;28;43117;-80
2022/03/29 10:15:49;;;;;;;;;;;17.90;45.30;;;;;;5082234;28;42976;-76
2022/03/29 10:18:15;;;;;;;;;;;18.00;45.40;;;;;;5085259;27;43026;-77
2022/03/29 10:20:41;;;;;;;;;;;17.80;46.00;;;;;;5082606;27;43257;-81
2022/03/29 10:23:07;;;;;;;;;;;17.70;45.20;;;;;;5085921;28;42934;-79
2022/03/29 10:25:33;;;;;;;;;;;17.90;45.30;;;;;;5085968;27;43046;-77
2022/03/29 10:28:00;;;;;;;;;;;17.90;45.60;;;;;;5084472;28;43025;-81
2022/03/29 10:30:32;;;;;;;;;;;18.00;45.70;;;;;;5084667;28;43019;-77
2022/03/29 10:33:16;;;;;;;;;;;18.10;45.70;;;;;;5077937;27;45702;-77
2022/03/29 10:36:00;;;;;;;;;;;18.20;47.00;;;;;;5081143;28;42879;-77
2022/03/29 10:38:47;;;;;;;;;;;18.20;45.20;;;;;;5084470;28;42869;-77
2022/03/29 10:41:28;;;;;;;;;;;18.10;45.00;;;;;;5067860;28;43131;-77
2022/03/29 10:44:01;;;;;;;;;;;18.10;44.80;;;;;;5065680;28;43017;-76
2022/03/29 10:46:38;;;;;;;;;;;18.00;45.40;;;;;;5074259;27;43008;-77
2022/03/29 10:49:22;;;;;;;;;;;18.10;45.10;;;;;;5079339;28;43558;-77
2022/03/29 10:51:48;;;;;;;;;;;17.90;45.50;;;;;;5081022;28;42836;-77
2022/03/29 10:54:24;;;;;;;;;;;18.00;45.40;;;;;;5082354;28;43247;-75
2022/03/29 10:57:00;;;;;;;;;;;17.90;44.80;;;;;;5080523;28;43021;-78
2022/03/29 10:59:29;;;;;;;;;;;17.70;48.80;;;;;;5073013;28;43072;-73
2022/03/29 11:02:20;;;;;;;;;;;17.90;46.60;;;;;;5082636;27;42986;-74
2022/03/29 11:05:02;;;;;;;;;;;18.10;46.70;;;;;;5071068;28;43077;-74
2022/03/29 11:07:28;;;;;;;;;;;17.80;48.30;;;;;;5081415;28;43054;-74
2022/03/29 11:10:28;;;;;;;;;;;17.50;46.30;;;;;;5082728;28;42971;-74
2022/03/29 11:12:56;;;;;;;;;;;17.90;48.00;;;;;;5018640;28;43229;-74
2022/03/29 11:15:25;;;;;;;;;;;17.80;47.10;;;;;;5067503;27;43045;-75
2022/03/29 11:17:54;;;;;;;;;;;17.80;46.30;;;;;;5083415;28;43002;-75
2022/03/29 11:20:36;;;;;;;;;;;17.70;44.60;;;;;;5078188;27;42997;-75
2022/03/29 11:23:04;;;;;;;;;;;17.80;47.90;;;;;;5081251;28;42980;-78
2022/03/29 11:25:37;;;;;;;;;;;17.60;45.00;;;;;;5084304;27;43878;-77
2022/03/29 11:28:07;;;;;;;;;;;17.90;44.90;;;;;;5080429;28;43022;-75
2022/03/29 11:30:34;;;;;;;;;;;17.90;44.60;;;;;;5079041;28;43106;-74
2022/03/29 11:33:01;;;;;;;;;;;17.90;45.40;;;;;;5081849;27;42962;-74
2022/03/29 11:35:26;;;;;;;;;;;17.80;46.00;;;;;;5073054;28;42941;-74
2022/03/29 11:37:53;;;;;;;;;;;17.90;45.10;;;;;;5083989;28;42873;-75
2022/03/29 11:40:19;;;;;;;;;;;17.90;44.50;;;;;;5084001;27;42882;-74
2022/03/29 11:42:49;;;;;;;;;;;17.80;44.40;;;;;;5083818;27;43027;-76
2022/03/29 11:45:16;;;;;;;;;;;17.80;46.80;;;;;;5083690;28;43442;-75
2022/03/29 11:47:55;;;;;;;;;;;17.80;46.50;;;;;;5082778;27;42817;-77
2022/03/29 11:50:29;;;;;;;;;;;17.80;43.50;;;;;;5082662;28;43602;-76
2022/03/29 11:52:55;;;;;;;;;;;18.00;46.90;;;;;;5080878;28;43107;-76
2022/03/29 11:55:20;;;;;;;;;;;18.10;44.60;;;;;;5084494;28;42999;-75
2022/03/29 11:57:46;;;;;;;;;;;18.10;43.80;;;;;;5081400;28;43126;-73
2022/03/29 12:00:24;;;;;;;;;;;17.90;46.10;;;;;;5075626;28;43427;-73
2022/03/29 12:02:51;;;;;;;;;;;18.00;44.10;;;;;;5084034;27;43022;-74
2022/03/29 12:05:23;;;;;;;;;;;17.90;44.10;;;;;;5083580;27;43534;-73
2022/03/29 12:07:54;;;;;;;;;;;18.00;43.50;;;;;;5082606;27;43041;-76
2022/03/29 12:10:27;;;;;;;;;;;17.80;44.60;;;;;;5082856;27;43561;-74
2022/03/29 12:12:53;;;;;;;;;;;17.90;44.00;;;;;;5084826;27;42996;-76
2022/03/29 12:15:20;;;;;;;;;;;17.90;44.00;;;;;;5082568;28;44231;-73
2022/03/29 12:18:40;;;;;;;;;;;17.70;43.60;;;;;;5083769;27;43045;-73
2022/03/29 12:20:43;;;;;;;;;;;17.40;43.40;;;;;;5082721;27;42941;-73
2022/03/29 12:23:15;;;;;;;;;;;17.90;45.70;;;;;;5083529;27;42948;-73
2022/03/29 12:25:41;;;;;;;;;;;17.60;44.70;;;;;;5083964;27;42886;-73
2022/03/29 12:28:07;;;;;;;;;;;17.70;44.60;;;;;;5084133;27;42972;-73
2022/03/29 12:30:32;;;;;;;;;;;17.60;44.70;;;;;;5083597;28;44680;-72
2022/03/29 12:32:58;;;;;;;;;;;17.60;46.40;;;;;;5081415;28;43238;-73
2022/03/29 12:35:27;;;;;;;;;;;17.70;45.20;;;;;;5083162;28;43912;-75
2022/03/29 12:38:06;;;;;;;;;;;17.80;44.70;;;;;;5082712;27;42965;-75
2022/03/29 12:40:32;;;;;;;;;;;17.80;43.90;;;;;;5083402;27;43085;-73
2022/03/29 12:43:02;;;;;;;;;;;17.50;43.40;;;;;;5084584;27;42976;-73
2022/03/29 12:45:28;;;;;;;;;;;17.70;46.70;;;;;;5083475;28;43134;-73
2022/03/29 12:50:57;;;;;;;;;;;17.70;42.70;;;;;;5082174;28;43011;-75
2022/03/29 12:53:22;;;;;;;;;;;17.80;43.70;;;;;;5085089;27;42760;-73
2022/03/29 12:55:58;;;;;;;;;;;17.90;43.10;;;;;;5083649;27;43010;-75
2022/03/29 12:58:34;;;;;;;;;;;17.80;43.10;;;;;;5084742;28;42955;-74
2022/03/29 13:01:01;;;;;;;;;;;17.90;42.90;;;;;;5083584;28;43689;-73
2022/03/29 13:03:27;;;;;;;;;;;17.70;43.80;;;;;;5083543;27;43185;-73
2022/03/29 13:05:53;;;;;;;;;;;17.60;45.60;;;;;;5083433;28;43051;-74
2022/03/29 13:08:22;;;;;;;;;;;17.70;43.60;;;;;;5084292;27;43048;-73
2022/03/29 13:10:50;;;;;;;;;;;17.80;43.70;;;;;;5084190;27;43990;-75
2022/03/29 13:13:21;;;;;;;;;;;18.00;45.90;;;;;;5084497;27;43316;-74
2022/03/29 13:15:49;;;;;;;;;;;17.90;44.40;;;;;;5084101;27;43005;-73
2022/03/29 13:18:18;;;;;;;;;;;18.00;44.90;;;;;;5083821;27;42851;-73
2022/03/29 13:20:44;;;;;;;;;;;17.80;43.20;;;;;;5084338;27;42954;-73
2022/03/29 13:23:09;;;;;;;;;;;17.80;44.90;;;;;;5084020;28;42901;-74
2022/03/29 13:25:36;;;;;;;;;;;17.80;44.00;;;;;;5084270;28;43179;-72
2022/03/29 13:28:02;;;;;;;;;;;17.90;44.80;;;;;;5083788;27;43017;-75
2022/03/29 13:30:29;;;;;;;;;;;17.60;46.20;;;;;;5083565;27;43697;-75
2022/03/29 13:32:55;;;;;;;;;;;17.80;44.30;;;;;;5082403;27;42933;-75
2022/03/29 13:35:20;;;;;;;;;;;18.00;44.10;;;;;;5082228;28;43855;-73
2022/03/29 13:37:46;;;;;;;;;;;17.70;45.60;;;;;;5082226;27;43192;-72
2022/03/29 13:40:12;;;;;;;;;;;17.60;44.40;;;;;;5081960;27;43047;-73
2022/03/29 13:42:38;;;;;;;;;;;18.00;44.60;;;;;;5083617;28;42914;-74
2022/03/29 13:45:04;;;;;;;;;;;17.70;46.30;;;;;;5084263;27;43002;-74
2022/03/29 13:47:29;;;;;;;;;;;17.90;43.90;;;;;;5086515;28;42944;-73
2022/03/29 13:49:55;;;;;;;;;;;17.80;43.80;;;;;;5086875;27;43688;-73
2022/03/29 13:52:23;;;;;;;;;;;17.80;47.00;;;;;;5074745;28;42996;-73
2022/03/29 13:54:49;;;;;;;;;;;17.90;42.70;;;;;;5070674;28;44255;-72
2022/03/29 13:57:14;;;;;;;;;;;17.80;44.00;;;;;;5069369;28;43047;-75
2022/03/29 13:59:40;;;;;;;;;;;17.90;46.50;;;;;;5078960;27;43025;-74
2022/03/29 14:02:05;;;;;;;;;;;17.90;43.90;;;;;;5086458;27;43051;-74
2022/03/29 14:04:31;;;;;;;;;;;17.90;46.20;;;;;;5087235;28;43496;-74
2022/03/29 14:06:57;;;;;;;;;;;17.90;43.80;;;;;;5086823;27;43065;-75
2022/03/29 14:09:24;;;;;;;;;;;17.90;44.30;;;;;;5086602;27;43500;-72
2022/03/29 14:11:50;;;;;;;;;;;17.90;44.70;;;;;;5082893;27;43154;-76
2022/03/29 14:14:15;;;;;;;;;;;17.90;44.50;;;;;;5081378;28;43928;-74
2022/03/29 14:16:41;;;;;;;;;;;17.80;45.30;;;;;;5076629;28;42905;-74
2022/03/29 14:19:08;;;;;;;;;;;17.90;47.20;;;;;;5075127;28;43463;-74
2022/03/29 14:21:34;;;;;;;;;;;;;;;;;;5076921;27;43232;-75
2022/03/29 14:24:00;;;;;;;;;;;17.90;46.80;;;;;;5083084;27;43253;-75
2022/03/29 14:26:25;;;;;;;;;;;18.00;46.00;;;;;;5077801;28;42958;-74
2022/03/29 14:28:51;;;;;;;;;;;;;;;;;;5077098;28;43295;-76
2022/03/29 14:31:17;;;;;;;;;;;17.90;46.10;;;;;;5075965;28;43025;-74